sensor_id;sensor_type;location;lat;lon;timestamp;temperature;humidity
17442;DHT22;8838;50.144;8.176;2022-07-18T00:00:40;16.30;99.90
17442;DHT22;8838;50.144;8.176;2022-07-18T00:03:07;16.30;99.90
17442;DHT22;8838;50.144;8.176;2022-07-18T00:05:34;16.20;99.90
17442;DHT22;8838;50.144;8.176;2022-07-18T00:08:01;16.20;99.90
17442;DHT22;8838;50.144;8.176;2022-07-18T00:10:28;16.30;99.90
17442;DHT22;8838;50.144;8.176;2022-07-18T00:12:56;16.30;99.90
17442;DHT22;8838;50.144;8.176;2022-07-18T00:15:23;16.10;99.90
17442;DHT22;8838;50.144;8.176;2022-07-18T00:17:49;16.00;99.90
17442;DHT22;8838;50.144;8.176;2022-07-18T00:20:16;15.90;99.90
17442;DHT22;8838;50.144;8.176;2022-07-18T00:22:43;15.90;99.90
17442;DHT22;8838;50.144;8.176;2022-07-18T00:25:10;15.80;99.90
17442;DHT22;8838;50.144;8.176;2022-07-18T00:27:37;15.80;99.90
17442;DHT22;8838;50.144;8.176;2022-07-18T00:30:06;15.70;99.90
17442;DHT22;8838;50.144;8.176;2022-07-18T00:32:33;15.60;99.90
17442;DHT22;8838;50.144;8.176;2022-07-18T00:35:00;15.40;99.90
17442;DHT22;8838;50.144;8.176;2022-07-18T00:37:27;15.40;99.90
17442;DHT22;8838;50.144;8.176;2022-07-18T00:39:54;15.50;99.90
17442;DHT22;8838;50.144;8.176;2022-07-18T00:42:21;15.40;99.90
17442;DHT22;8838;50.144;8.176;2022-07-18T00:44:52;15.50;99.90
17442;DHT22;8838;50.144;8.176;2022-07-18T00:47:21;15.50;99.90
17442;DHT22;8838;50.144;8.176;2022-07-18T00:49:48;15.50;99.90
17442;DHT22;8838;50.144;8.176;2022-07-18T00:52:15;15.40;99.90
17442;DHT22;8838;50.144;8.176;2022-07-18T00:54:41;15.40;99.90
17442;DHT22;8838;50.144;8.176;2022-07-18T00:57:08;15.40;99.90
17442;DHT22;8838;50.144;8.176;2022-07-18T00:59:36;15.40;99.90
17442;DHT22;8838;50.144;8.176;2022-07-18T01:02:22;15.30;99.90
17442;DHT22;8838;50.144;8.176;2022-07-18T01:04:49;15.20;99.90
17442;DHT22;8838;50.144;8.176;2022-07-18T01:07:16;15.20;99.90
17442;DHT22;8838;50.144;8.176;2022-07-18T01:09:43;15.20;99.90
17442;DHT22;8838;50.144;8.176;2022-07-18T01:12:10;15.20;99.90
17442;DHT22;8838;50.144;8.176;2022-07-18T01:14:37;15.10;99.90
17442;DHT22;8838;50.144;8.176;2022-07-18T01:17:12;15.10;99.90
17442;DHT22;8838;50.144;8.176;2022-07-18T01:19:41;15.10;99.90
17442;DHT22;8838;50.144;8.176;2022-07-18T01:22:09;15.00;99.90
17442;DHT22;8838;50.144;8.176;2022-07-18T01:24:36;14.90;99.90
17442;DHT22;8838;50.144;8.176;2022-07-18T01:27:03;14.90;99.90
17442;DHT22;8838;50.144;8.176;2022-07-18T01:29:30;14.90;99.90
17442;DHT22;8838;50.144;8.176;2022-07-18T01:32:03;14.90;99.90
17442;DHT22;8838;50.144;8.176;2022-07-18T01:34:30;14.90;99.90
17442;DHT22;8838;50.144;8.176;2022-07-18T01:36:57;14.90;99.90
17442;DHT22;8838;50.144;8.176;2022-07-18T01:39:25;14.80;99.90
17442;DHT22;8838;50.144;8.176;2022-07-18T01:41:55;14.80;99.90
17442;DHT22;8838;50.144;8.176;2022-07-18T01:44:22;14.70;99.90
17442;DHT22;8838;50.144;8.176;2022-07-18T01:46:49;14.70;99.90
17442;DHT22;8838;50.144;8.176;2022-07-18T01:49:16;14.70;99.90
17442;DHT22;8838;50.144;8.176;2022-07-18T01:51:45;14.70;99.90
17442;DHT22;8838;50.144;8.176;2022-07-18T01:54:12;14.80;99.90
17442;DHT22;8838;50.144;8.176;2022-07-18T01:56:40;14.80;99.90
17442;DHT22;8838;50.144;8.176;2022-07-18T01:59:07;14.70;99.90
17442;DHT22;8838;50.144;8.176;2022-07-18T02:01:34;14.60;99.90
17442;DHT22;8838;50.144;8.176;2022-07-18T02:04:01;14.60;99.90
17442;DHT22;8838;50.144;8.176;2022-07-18T02:06:28;14.50;99.90
17442;DHT22;8838;50.144;8.176;2022-07-18T02:08:55;14.40;99.90
17442;DHT22;8838;50.144;8.176;2022-07-18T02:11:22;14.40;99.90
17442;DHT22;8838;50.144;8.176;2022-07-18T02:13:50;14.30;99.90
17442;DHT22;8838;50.144;8.176;2022-07-18T02:16:17;14.30;99.90
17442;DHT22;8838;50.144;8.176;2022-07-18T02:18:44;14.30;99.90
17442;DHT22;8838;50.144;8.176;2022-07-18T02:21:11;14.30;99.90
17442;DHT22;8838;50.144;8.176;2022-07-18T02:23:39;14.20;99.90
17442;DHT22;8838;50.144;8.176;2022-07-18T02:26:07;14.20;99.90
17442;DHT22;8838;50.144;8.176;2022-07-18T02:28:34;14.10;99.90
17442;DHT22;8838;50.144;8.176;2022-07-18T02:31:03;14.10;99.90
17442;DHT22;8838;50.144;8.176;2022-07-18T02:33:30;14.10;99.90
17442;DHT22;8838;50.144;8.176;2022-07-18T02:35:57;14.10;99.90
17442;DHT22;8838;50.144;8.176;2022-07-18T02:38:24;14.10;99.90
17442;DHT22;8838;50.144;8.176;2022-07-18T02:40:51;14.10;99.90
17442;DHT22;8838;50.144;8.176;2022-07-18T02:43:18;14.10;99.90
17442;DHT22;8838;50.144;8.176;2022-07-18T02:45:45;14.00;99.90
17442;DHT22;8838;50.144;8.176;2022-07-18T02:48:13;14.00;99.90
17442;DHT22;8838;50.144;8.176;2022-07-18T02:50:40;13.90;99.90
17442;DHT22;8838;50.144;8.176;2022-07-18T02:53:07;13.90;99.90
17442;DHT22;8838;50.144;8.176;2022-07-18T02:55:34;13.70;99.90
17442;DHT22;8838;50.144;8.176;2022-07-18T02:58:00;13.70;99.90
17442;DHT22;8838;50.144;8.176;2022-07-18T03:00:27;13.70;99.90
17442;DHT22;8838;50.144;8.176;2022-07-18T03:02:54;13.80;99.90
17442;DHT22;8838;50.144;8.176;2022-07-18T03:05:22;13.70;99.90
17442;DHT22;8838;50.144;8.176;2022-07-18T03:07:49;13.60;99.90
17442;DHT22;8838;50.144;8.176;2022-07-18T03:10:16;13.60;99.90
17442;DHT22;8838;50.144;8.176;2022-07-18T03:12:43;13.70;99.90
17442;DHT22;8838;50.144;8.176;2022-07-18T03:15:10;13.70;99.90
17442;DHT22;8838;50.144;8.176;2022-07-18T03:17:37;13.60;99.90
17442;DHT22;8838;50.144;8.176;2022-07-18T03:20:04;13.60;99.90
17442;DHT22;8838;50.144;8.176;2022-07-18T03:22:33;13.50;99.90
17442;DHT22;8838;50.144;8.176;2022-07-18T03:25:00;13.50;99.90
17442;DHT22;8838;50.144;8.176;2022-07-18T03:27:27;13.50;99.90
17442;DHT22;8838;50.144;8.176;2022-07-18T03:29:53;13.50;99.90
17442;DHT22;8838;50.144;8.176;2022-07-18T03:32:20;13.40;99.90
17442;DHT22;8838;50.144;8.176;2022-07-18T03:34:47;13.40;99.90
17442;DHT22;8838;50.144;8.176;2022-07-18T03:37:14;13.50;99.90
17442;DHT22;8838;50.144;8.176;2022-07-18T03:39:42;13.50;99.90
17442;DHT22;8838;50.144;8.176;2022-07-18T03:42:09;13.50;99.90
17442;DHT22;8838;50.144;8.176;2022-07-18T03:44:36;13.50;99.90
17442;DHT22;8838;50.144;8.176;2022-07-18T03:47:03;13.50;99.90
17442;DHT22;8838;50.144;8.176;2022-07-18T03:49:29;13.50;99.90
17442;DHT22;8838;50.144;8.176;2022-07-18T03:51:56;13.50;99.90
17442;DHT22;8838;50.144;8.176;2022-07-18T03:54:23;13.40;99.90
17442;DHT22;8838;50.144;8.176;2022-07-18T03:56:52;13.40;99.90
17442;DHT22;8838;50.144;8.176;2022-07-18T03:59:18;13.40;99.90
17442;DHT22;8838;50.144;8.176;2022-07-18T04:01:45;13.40;99.90
17442;DHT22;8838;50.144;8.176;2022-07-18T04:04:12;13.40;99.90
17442;DHT22;8838;50.144;8.176;2022-07-18T04:06:39;13.50;99.90
17442;DHT22;8838;50.144;8.176;2022-07-18T04:09:06;13.50;99.90
17442;DHT22;8838;50.144;8.176;2022-07-18T04:11:33;13.40;99.90
17442;DHT22;8838;50.144;8.176;2022-07-18T04:14:01;13.50;99.90
17442;DHT22;8838;50.144;8.176;2022-07-18T04:16:28;13.60;99.90
17442;DHT22;8838;50.144;8.176;2022-07-18T04:18:55;13.70;99.90
17442;DHT22;8838;50.144;8.176;2022-07-18T04:21:22;13.80;99.90
17442;DHT22;8838;50.144;8.176;2022-07-18T04:23:49;13.80;99.90
17442;DHT22;8838;50.144;8.176;2022-07-18T04:26:16;13.70;99.90
17442;DHT22;8838;50.144;8.176;2022-07-18T04:28:43;13.70;99.90
17442;DHT22;8838;50.144;8.176;2022-07-18T04:31:12;13.70;99.90
17442;DHT22;8838;50.144;8.176;2022-07-18T04:33:39;13.80;99.90
17442;DHT22;8838;50.144;8.176;2022-07-18T04:36:06;13.80;99.90
17442;DHT22;8838;50.144;8.176;2022-07-18T04:38:33;13.90;99.90
17442;DHT22;8838;50.144;8.176;2022-07-18T04:41:02;13.90;99.90
17442;DHT22;8838;50.144;8.176;2022-07-18T04:43:30;13.90;99.90
17442;DHT22;8838;50.144;8.176;2022-07-18T04:45:57;14.00;99.90
17442;DHT22;8838;50.144;8.176;2022-07-18T04:48:25;14.00;99.90
17442;DHT22;8838;50.144;8.176;2022-07-18T04:50:52;14.10;99.90
17442;DHT22;8838;50.144;8.176;2022-07-18T04:53:19;14.10;99.90
17442;DHT22;8838;50.144;8.176;2022-07-18T04:55:46;14.20;99.90
17442;DHT22;8838;50.144;8.176;2022-07-18T04:58:13;14.20;99.90
17442;DHT22;8838;50.144;8.176;2022-07-18T05:00:40;14.30;99.90
17442;DHT22;8838;50.144;8.176;2022-07-18T05:03:07;14.40;99.90
17442;DHT22;8838;50.144;8.176;2022-07-18T05:05:35;14.40;99.90
17442;DHT22;8838;50.144;8.176;2022-07-18T05:08:03;14.50;99.90
17442;DHT22;8838;50.144;8.176;2022-07-18T05:10:30;14.50;99.90
17442;DHT22;8838;50.144;8.176;2022-07-18T05:12:57;14.50;99.90
17442;DHT22;8838;50.144;8.176;2022-07-18T05:15:24;14.60;99.90
17442;DHT22;8838;50.144;8.176;2022-07-18T05:17:52;14.70;99.90
17442;DHT22;8838;50.144;8.176;2022-07-18T05:20:21;14.80;99.90
17442;DHT22;8838;50.144;8.176;2022-07-18T05:22:49;14.90;99.90
17442;DHT22;8838;50.144;8.176;2022-07-18T05:25:17;15.00;99.90
17442;DHT22;8838;50.144;8.176;2022-07-18T05:27:44;15.00;99.90
17442;DHT22;8838;50.144;8.176;2022-07-18T05:30:12;15.10;99.90
17442;DHT22;8838;50.144;8.176;2022-07-18T05:32:41;15.20;99.90
17442;DHT22;8838;50.144;8.176;2022-07-18T05:35:09;15.30;99.90
17442;DHT22;8838;50.144;8.176;2022-07-18T05:37:37;15.30;99.90
17442;DHT22;8838;50.144;8.176;2022-07-18T05:40:08;15.40;99.90
17442;DHT22;8838;50.144;8.176;2022-07-18T05:42:36;15.50;99.90
17442;DHT22;8838;50.144;8.176;2022-07-18T05:45:04;15.60;99.90
17442;DHT22;8838;50.144;8.176;2022-07-18T05:47:31;15.70;99.90
17442;DHT22;8838;50.144;8.176;2022-07-18T05:49:58;15.80;99.90
17442;DHT22;8838;50.144;8.176;2022-07-18T05:52:25;15.80;99.90
17442;DHT22;8838;50.144;8.176;2022-07-18T05:54:53;15.90;99.90
17442;DHT22;8838;50.144;8.176;2022-07-18T05:57:21;16.10;99.90
17442;DHT22;8838;50.144;8.176;2022-07-18T05:59:48;16.20;99.90
17442;DHT22;8838;50.144;8.176;2022-07-18T06:02:15;16.30;99.90
17442;DHT22;8838;50.144;8.176;2022-07-18T06:04:43;16.50;99.90
17442;DHT22;8838;50.144;8.176;2022-07-18T06:07:09;16.60;99.90
17442;DHT22;8838;50.144;8.176;2022-07-18T06:09:36;16.80;99.90
17442;DHT22;8838;50.144;8.176;2022-07-18T06:12:04;16.90;99.90
17442;DHT22;8838;50.144;8.176;2022-07-18T06:14:33;17.00;99.90
17442;DHT22;8838;50.144;8.176;2022-07-18T06:17:00;17.20;99.90
17442;DHT22;8838;50.144;8.176;2022-07-18T06:19:26;17.30;99.90
17442;DHT22;8838;50.144;8.176;2022-07-18T06:21:53;17.50;99.90
17442;DHT22;8838;50.144;8.176;2022-07-18T06:24:20;17.60;99.90
17442;DHT22;8838;50.144;8.176;2022-07-18T06:26:47;17.80;99.90
17442;DHT22;8838;50.144;8.176;2022-07-18T06:29:15;18.00;99.90
17442;DHT22;8838;50.144;8.176;2022-07-18T06:31:43;18.10;99.90
17442;DHT22;8838;50.144;8.176;2022-07-18T06:34:10;18.30;99.90
17442;DHT22;8838;50.144;8.176;2022-07-18T06:36:37;18.60;99.90
17442;DHT22;8838;50.144;8.176;2022-07-18T06:39:04;18.80;99.90
17442;DHT22;8838;50.144;8.176;2022-07-18T06:41:36;19.10;99.90
17442;DHT22;8838;50.144;8.176;2022-07-18T06:44:03;19.40;99.90
17442;DHT22;8838;50.144;8.176;2022-07-18T06:46:30;19.60;99.90
17442;DHT22;8838;50.144;8.176;2022-07-18T06:48:59;19.80;99.90
17442;DHT22;8838;50.144;8.176;2022-07-18T06:51:25;20.00;99.90
17442;DHT22;8838;50.144;8.176;2022-07-18T06:53:52;20.20;99.90
17442;DHT22;8838;50.144;8.176;2022-07-18T06:56:19;20.50;99.90
17442;DHT22;8838;50.144;8.176;2022-07-18T06:58:46;20.70;99.90
17442;DHT22;8838;50.144;8.176;2022-07-18T07:01:18;20.90;99.90
17442;DHT22;8838;50.144;8.176;2022-07-18T07:03:45;21.10;99.90
17442;DHT22;8838;50.144;8.176;2022-07-18T07:06:14;21.40;99.90
17442;DHT22;8838;50.144;8.176;2022-07-18T07:08:42;21.70;99.90
17442;DHT22;8838;50.144;8.176;2022-07-18T07:11:09;21.90;99.90
17442;DHT22;8838;50.144;8.176;2022-07-18T07:13:36;22.20;99.90
17442;DHT22;8838;50.144;8.176;2022-07-18T07:16:03;22.50;99.90
17442;DHT22;8838;50.144;8.176;2022-07-18T07:18:30;22.80;99.90
17442;DHT22;8838;50.144;8.176;2022-07-18T07:20:57;23.00;99.90
17442;DHT22;8838;50.144;8.176;2022-07-18T07:23:25;23.30;99.90
17442;DHT22;8838;50.144;8.176;2022-07-18T07:25:52;23.60;99.50
17442;DHT22;8838;50.144;8.176;2022-07-18T07:28:20;23.90;98.20
17442;DHT22;8838;50.144;8.176;2022-07-18T07:30:47;24.10;97.40
17442;DHT22;8838;50.144;8.176;2022-07-18T07:33:14;24.40;96.50
17442;DHT22;8838;50.144;8.176;2022-07-18T07:35:41;24.70;96.40
17442;DHT22;8838;50.144;8.176;2022-07-18T07:38:08;24.90;95.40
17442;DHT22;8838;50.144;8.176;2022-07-18T07:40:37;25.00;95.70
17442;DHT22;8838;50.144;8.176;2022-07-18T07:43:06;25.30;96.20
17442;DHT22;8838;50.144;8.176;2022-07-18T07:45:33;25.40;93.90
17442;DHT22;8838;50.144;8.176;2022-07-18T07:48:00;25.60;93.30
17442;DHT22;8838;50.144;8.176;2022-07-18T07:50:27;25.80;93.70
17442;DHT22;8838;50.144;8.176;2022-07-18T07:52:55;26.10;93.70
17442;DHT22;8838;50.144;8.176;2022-07-18T07:55:22;26.40;92.80
17442;DHT22;8838;50.144;8.176;2022-07-18T07:57:50;26.60;92.00
17442;DHT22;8838;50.144;8.176;2022-07-18T08:00:17;26.90;92.40
17442;DHT22;8838;50.144;8.176;2022-07-18T08:02:51;27.10;92.00
17442;DHT22;8838;50.144;8.176;2022-07-18T08:05:18;27.40;91.50
17442;DHT22;8838;50.144;8.176;2022-07-18T08:07:45;27.40;91.00
17442;DHT22;8838;50.144;8.176;2022-07-18T08:10:12;27.80;91.40
17442;DHT22;8838;50.144;8.176;2022-07-18T08:12:39;28.00;90.40
17442;DHT22;8838;50.144;8.176;2022-07-18T08:15:08;28.30;88.30
17442;DHT22;8838;50.144;8.176;2022-07-18T08:17:35;28.70;87.20
17442;DHT22;8838;50.144;8.176;2022-07-18T08:20:03;29.30;87.10
17442;DHT22;8838;50.144;8.176;2022-07-18T08:22:30;29.40;85.50
17442;DHT22;8838;50.144;8.176;2022-07-18T08:24:57;29.70;83.40
17442;DHT22;8838;50.144;8.176;2022-07-18T08:27:24;29.80;82.00
17442;DHT22;8838;50.144;8.176;2022-07-18T08:29:51;30.10;80.90
17442;DHT22;8838;50.144;8.176;2022-07-18T08:32:19;30.30;80.20
17442;DHT22;8838;50.144;8.176;2022-07-18T08:34:46;30.60;80.30
17442;DHT22;8838;50.144;8.176;2022-07-18T08:37:13;30.80;78.60
17442;DHT22;8838;50.144;8.176;2022-07-18T08:39:40;30.80;76.40
17442;DHT22;8838;50.144;8.176;2022-07-18T08:42:07;30.70;77.40
17442;DHT22;8838;50.144;8.176;2022-07-18T08:44:36;31.10;76.60
17442;DHT22;8838;50.144;8.176;2022-07-18T08:47:05;31.10;74.90
17442;DHT22;8838;50.144;8.176;2022-07-18T08:49:35;31.00;75.00
17442;DHT22;8838;50.144;8.176;2022-07-18T08:52:02;31.10;72.80
17442;DHT22;8838;50.144;8.176;2022-07-18T08:54:29;30.90;73.70
17442;DHT22;8838;50.144;8.176;2022-07-18T08:56:57;30.90;75.50
17442;DHT22;8838;50.144;8.176;2022-07-18T08:59:23;31.30;76.60
17442;DHT22;8838;50.144;8.176;2022-07-18T09:01:50;31.60;73.20
17442;DHT22;8838;50.144;8.176;2022-07-18T09:04:32;31.80;73.20
17442;DHT22;8838;50.144;8.176;2022-07-18T09:07:00;32.20;69.90
17442;DHT22;8838;50.144;8.176;2022-07-18T09:09:29;32.20;70.00
17442;DHT22;8838;50.144;8.176;2022-07-18T09:11:59;32.20;69.10
17442;DHT22;8838;50.144;8.176;2022-07-18T09:14:35;32.00;68.50
17442;DHT22;8838;50.144;8.176;2022-07-18T09:17:06;31.80;67.60
17442;DHT22;8838;50.144;8.176;2022-07-18T09:19:33;31.80;68.40
17442;DHT22;8838;50.144;8.176;2022-07-18T09:22:13;31.30;69.80
17442;DHT22;8838;50.144;8.176;2022-07-18T09:24:56;31.50;71.00
17442;DHT22;8838;50.144;8.176;2022-07-18T09:27:26;31.80;67.90
17442;DHT22;8838;50.144;8.176;2022-07-18T09:30:11;32.20;67.20
17442;DHT22;8838;50.144;8.176;2022-07-18T09:32:42;32.50;64.80
17442;DHT22;8838;50.144;8.176;2022-07-18T09:35:11;32.20;66.50
17442;DHT22;8838;50.144;8.176;2022-07-18T09:37:40;33.00;67.10
17442;DHT22;8838;50.144;8.176;2022-07-18T09:40:15;33.40;66.00
17442;DHT22;8838;50.144;8.176;2022-07-18T09:42:42;33.70;64.80
17442;DHT22;8838;50.144;8.176;2022-07-18T09:45:09;33.80;64.20
17442;DHT22;8838;50.144;8.176;2022-07-18T09:47:49;33.60;64.10
17442;DHT22;8838;50.144;8.176;2022-07-18T09:50:28;33.20;63.70
17442;DHT22;8838;50.144;8.176;2022-07-18T09:53:04;33.00;64.50
17442;DHT22;8838;50.144;8.176;2022-07-18T09:55:32;33.10;64.60
17442;DHT22;8838;50.144;8.176;2022-07-18T09:58:03;33.10;63.60
17442;DHT22;8838;50.144;8.176;2022-07-18T10:00:33;33.70;63.70
17442;DHT22;8838;50.144;8.176;2022-07-18T10:03:02;33.90;63.30
17442;DHT22;8838;50.144;8.176;2022-07-18T10:05:30;34.20;62.80
17442;DHT22;8838;50.144;8.176;2022-07-18T10:08:02;34.20;62.40
17442;DHT22;8838;50.144;8.176;2022-07-18T10:10:30;34.60;62.40
17442;DHT22;8838;50.144;8.176;2022-07-18T10:13:00;34.50;62.50
17442;DHT22;8838;50.144;8.176;2022-07-18T10:15:29;34.20;61.60
17442;DHT22;8838;50.144;8.176;2022-07-18T10:17:58;34.20;60.30
17442;DHT22;8838;50.144;8.176;2022-07-18T10:20:31;34.10;61.50
17442;DHT22;8838;50.144;8.176;2022-07-18T10:23:06;34.60;61.20
17442;DHT22;8838;50.144;8.176;2022-07-18T10:25:34;35.00;60.00
17442;DHT22;8838;50.144;8.176;2022-07-18T10:28:08;35.30;60.50
17442;DHT22;8838;50.144;8.176;2022-07-18T10:30:43;35.40;60.10
17442;DHT22;8838;50.144;8.176;2022-07-18T10:33:41;34.90;59.20
17442;DHT22;8838;50.144;8.176;2022-07-18T10:36:11;35.20;59.20
17442;DHT22;8838;50.144;8.176;2022-07-18T10:39:06;35.10;59.90
17442;DHT22;8838;50.144;8.176;2022-07-18T10:42:13;35.00;59.90
17442;DHT22;8838;50.144;8.176;2022-07-18T10:44:40;34.00;62.00
17442;DHT22;8838;50.144;8.176;2022-07-18T10:47:08;34.40;61.60
17442;DHT22;8838;50.144;8.176;2022-07-18T10:50:00;35.00;60.80
17442;DHT22;8838;50.144;8.176;2022-07-18T10:52:55;35.50;59.80
17442;DHT22;8838;50.144;8.176;2022-07-18T10:55:34;34.80;60.00
17442;DHT22;8838;50.144;8.176;2022-07-18T10:58:20;34.90;59.60
17442;DHT22;8838;50.144;8.176;2022-07-18T11:00:49;34.90;59.30
17442;DHT22;8838;50.144;8.176;2022-07-18T11:03:25;35.30;58.00
17442;DHT22;8838;50.144;8.176;2022-07-18T11:05:55;35.00;58.30
17442;DHT22;8838;50.144;8.176;2022-07-18T11:08:22;34.70;58.50
17442;DHT22;8838;50.144;8.176;2022-07-18T11:11:10;34.50;58.40
17442;DHT22;8838;50.144;8.176;2022-07-18T11:13:39;34.40;58.00
17442;DHT22;8838;50.144;8.176;2022-07-18T11:16:11;34.60;58.30
17442;DHT22;8838;50.144;8.176;2022-07-18T11:21:57;34.40;57.10
17442;DHT22;8838;50.144;8.176;2022-07-18T11:24:26;34.20;58.20
17442;DHT22;8838;50.144;8.176;2022-07-18T11:26:54;34.80;58.00
17442;DHT22;8838;50.144;8.176;2022-07-18T11:29:21;35.10;56.70
17442;DHT22;8838;50.144;8.176;2022-07-18T11:31:49;35.40;55.70
17442;DHT22;8838;50.144;8.176;2022-07-18T11:34:17;35.50;56.10
17442;DHT22;8838;50.144;8.176;2022-07-18T11:36:45;35.90;55.30
17442;DHT22;8838;50.144;8.176;2022-07-18T11:39:13;35.90;55.10
17442;DHT22;8838;50.144;8.176;2022-07-18T11:41:41;36.00;56.50
17442;DHT22;8838;50.144;8.176;2022-07-18T11:44:19;35.20;55.20
17442;DHT22;8838;50.144;8.176;2022-07-18T11:47:02;34.40;56.00
17442;DHT22;8838;50.144;8.176;2022-07-18T11:49:29;34.30;56.10
17442;DHT22;8838;50.144;8.176;2022-07-18T11:51:57;34.10;56.60
17442;DHT22;8838;50.144;8.176;2022-07-18T11:54:24;34.50;57.10
17442;DHT22;8838;50.144;8.176;2022-07-18T11:56:54;33.80;57.00
17442;DHT22;8838;50.144;8.176;2022-07-18T11:59:23;33.70;56.00
17442;DHT22;8838;50.144;8.176;2022-07-18T12:02:01;33.70;57.10
17442;DHT22;8838;50.144;8.176;2022-07-18T12:04:28;33.90;56.90
17442;DHT22;8838;50.144;8.176;2022-07-18T12:07:16;34.00;56.10
17442;DHT22;8838;50.144;8.176;2022-07-18T12:09:43;33.70;57.30
17442;DHT22;8838;50.144;8.176;2022-07-18T12:12:11;33.70;58.20
17442;DHT22;8838;50.144;8.176;2022-07-18T12:14:42;33.40;57.60
17442;DHT22;8838;50.144;8.176;2022-07-18T12:17:13;33.10;57.40
17442;DHT22;8838;50.144;8.176;2022-07-18T12:19:40;32.70;57.90
17442;DHT22;8838;50.144;8.176;2022-07-18T12:22:11;33.00;59.10
17442;DHT22;8838;50.144;8.176;2022-07-18T12:24:39;33.20;59.00
17442;DHT22;8838;50.144;8.176;2022-07-18T12:27:11;33.10;58.80
17442;DHT22;8838;50.144;8.176;2022-07-18T12:30:09;33.20;58.90
17442;DHT22;8838;50.144;8.176;2022-07-18T12:32:42;33.40;58.30
17442;DHT22;8838;50.144;8.176;2022-07-18T12:35:11;33.60;57.60
17442;DHT22;8838;50.144;8.176;2022-07-18T12:37:38;34.00;58.40
17442;DHT22;8838;50.144;8.176;2022-07-18T12:40:07;33.80;58.10
17442;DHT22;8838;50.144;8.176;2022-07-18T12:42:38;33.80;58.60
17442;DHT22;8838;50.144;8.176;2022-07-18T12:45:06;33.50;58.40
17442;DHT22;8838;50.144;8.176;2022-07-18T12:47:35;33.40;58.80
17442;DHT22;8838;50.144;8.176;2022-07-18T12:50:04;33.70;59.30
17442;DHT22;8838;50.144;8.176;2022-07-18T12:52:32;33.90;59.20
17442;DHT22;8838;50.144;8.176;2022-07-18T12:55:00;33.90;58.20
17442;DHT22;8838;50.144;8.176;2022-07-18T12:57:27;33.90;59.00
17442;DHT22;8838;50.144;8.176;2022-07-18T12:59:55;33.90;58.30
17442;DHT22;8838;50.144;8.176;2022-07-18T13:02:31;33.70;57.50
17442;DHT22;8838;50.144;8.176;2022-07-18T13:04:58;33.50;58.50
17442;DHT22;8838;50.144;8.176;2022-07-18T13:07:25;33.80;59.40
17442;DHT22;8838;50.144;8.176;2022-07-18T13:09:52;33.90;58.90
17442;DHT22;8838;50.144;8.176;2022-07-18T13:12:19;34.20;58.30
17442;DHT22;8838;50.144;8.176;2022-07-18T13:14:47;34.20;58.30
17442;DHT22;8838;50.144;8.176;2022-07-18T13:17:14;34.30;58.40
17442;DHT22;8838;50.144;8.176;2022-07-18T13:19:42;33.90;59.50
17442;DHT22;8838;50.144;8.176;2022-07-18T13:22:10;34.20;58.70
17442;DHT22;8838;50.144;8.176;2022-07-18T13:24:37;34.40;59.10
17442;DHT22;8838;50.144;8.176;2022-07-18T13:27:05;34.00;58.30
17442;DHT22;8838;50.144;8.176;2022-07-18T13:29:33;34.20;57.90
17442;DHT22;8838;50.144;8.176;2022-07-18T13:32:00;34.40;58.00
17442;DHT22;8838;50.144;8.176;2022-07-18T13:34:28;34.40;59.30
17442;DHT22;8838;50.144;8.176;2022-07-18T13:36:57;34.40;58.70
17442;DHT22;8838;50.144;8.176;2022-07-18T13:39:24;34.60;58.30
17442;DHT22;8838;50.144;8.176;2022-07-18T13:41:50;34.40;58.90
17442;DHT22;8838;50.144;8.176;2022-07-18T13:44:17;34.70;58.50
17442;DHT22;8838;50.144;8.176;2022-07-18T13:46:44;34.70;58.30
17442;DHT22;8838;50.144;8.176;2022-07-18T13:49:11;34.60;58.10
17442;DHT22;8838;50.144;8.176;2022-07-18T13:51:38;34.70;59.00
17442;DHT22;8838;50.144;8.176;2022-07-18T13:54:07;34.80;58.50
17442;DHT22;8838;50.144;8.176;2022-07-18T13:56:34;34.90;58.50
17442;DHT22;8838;50.144;8.176;2022-07-18T13:59:01;34.90;59.20
17442;DHT22;8838;50.144;8.176;2022-07-18T14:01:28;34.80;57.90
17442;DHT22;8838;50.144;8.176;2022-07-18T14:03:55;34.20;58.70
17442;DHT22;8838;50.144;8.176;2022-07-18T14:06:22;34.20;59.20
17442;DHT22;8838;50.144;8.176;2022-07-18T14:08:49;34.30;58.70
17442;DHT22;8838;50.144;8.176;2022-07-18T14:11:17;34.50;59.20
17442;DHT22;8838;50.144;8.176;2022-07-18T14:13:44;34.60;57.70
17442;DHT22;8838;50.144;8.176;2022-07-18T14:16:12;34.80;58.90
17442;DHT22;8838;50.144;8.176;2022-07-18T14:18:39;35.00;58.60
17442;DHT22;8838;50.144;8.176;2022-07-18T14:21:07;35.10;57.60
17442;DHT22;8838;50.144;8.176;2022-07-18T14:23:34;34.60;58.90
17442;DHT22;8838;50.144;8.176;2022-07-18T14:26:01;34.40;59.10
17442;DHT22;8838;50.144;8.176;2022-07-18T14:28:29;34.40;58.70
17442;DHT22;8838;50.144;8.176;2022-07-18T14:30:56;34.20;58.40
17442;DHT22;8838;50.144;8.176;2022-07-18T14:33:23;34.10;59.40
17442;DHT22;8838;50.144;8.176;2022-07-18T14:35:50;34.20;58.50
17442;DHT22;8838;50.144;8.176;2022-07-18T14:38:17;33.90;58.60
17442;DHT22;8838;50.144;8.176;2022-07-18T14:40:44;33.70;59.50
17442;DHT22;8838;50.144;8.176;2022-07-18T14:43:11;33.60;59.20
17442;DHT22;8838;50.144;8.176;2022-07-18T14:45:39;34.00;59.50
17442;DHT22;8838;50.144;8.176;2022-07-18T14:48:06;34.20;59.60
17442;DHT22;8838;50.144;8.176;2022-07-18T14:50:33;34.60;58.20
17442;DHT22;8838;50.144;8.176;2022-07-18T14:53:00;34.90;58.70
17442;DHT22;8838;50.144;8.176;2022-07-18T14:55:27;34.70;58.90
17442;DHT22;8838;50.144;8.176;2022-07-18T14:57:54;34.70;57.90
17442;DHT22;8838;50.144;8.176;2022-07-18T15:00:21;34.50;58.20
17442;DHT22;8838;50.144;8.176;2022-07-18T15:02:49;34.40;58.80
17442;DHT22;8838;50.144;8.176;2022-07-18T15:05:16;34.60;58.70
17442;DHT22;8838;50.144;8.176;2022-07-18T15:07:43;34.70;58.70
17442;DHT22;8838;50.144;8.176;2022-07-18T15:10:11;34.60;58.50
17442;DHT22;8838;50.144;8.176;2022-07-18T15:12:40;34.70;58.60
17442;DHT22;8838;50.144;8.176;2022-07-18T15:15:08;35.00;58.40
17442;DHT22;8838;50.144;8.176;2022-07-18T15:17:35;34.90;57.80
17442;DHT22;8838;50.144;8.176;2022-07-18T15:20:05;34.20;57.50
17442;DHT22;8838;50.144;8.176;2022-07-18T15:22:32;33.50;58.60
17442;DHT22;8838;50.144;8.176;2022-07-18T15:24:59;33.80;59.10
17442;DHT22;8838;50.144;8.176;2022-07-18T15:27:26;34.10;58.50
17442;DHT22;8838;50.144;8.176;2022-07-18T15:29:53;34.20;59.00
17442;DHT22;8838;50.144;8.176;2022-07-18T15:32:20;34.40;58.70
17442;DHT22;8838;50.144;8.176;2022-07-18T15:34:47;34.50;58.90
17442;DHT22;8838;50.144;8.176;2022-07-18T15:37:16;34.70;58.50
17442;DHT22;8838;50.144;8.176;2022-07-18T15:39:43;34.80;58.60
17442;DHT22;8838;50.144;8.176;2022-07-18T15:42:10;34.80;57.60
17442;DHT22;8838;50.144;8.176;2022-07-18T15:44:37;34.50;57.50
17442;DHT22;8838;50.144;8.176;2022-07-18T15:47:04;34.40;58.60
17442;DHT22;8838;50.144;8.176;2022-07-18T15:49:32;34.50;58.50
17442;DHT22;8838;50.144;8.176;2022-07-18T15:51:59;34.70;58.40
17442;DHT22;8838;50.144;8.176;2022-07-18T15:54:31;34.70;58.00
17442;DHT22;8838;50.144;8.176;2022-07-18T15:56:58;34.70;58.30